createdAt,value
2019-02-09T12:21:28.646Z,993.83
2019-02-09T12:22:30.046Z,993.80
2019-02-09T12:23:31.452Z,993.87
2019-02-09T12:24:32.847Z,993.89
2019-02-09T12:25:34.249Z,993.93
2019-02-09T12:26:35.658Z,994.03
2019-02-09T12:27:37.051Z,993.83
2019-02-09T12:28:38.474Z,993.97
2019-02-09T12:29:39.867Z,993.86
2019-02-09T12:30:41.283Z,993.84
2019-02-09T12:31:42.688Z,993.80
2019-02-09T12:32:44.094Z,993.92
2019-02-09T12:33:45.496Z,993.81
2019-02-09T12:34:46.908Z,993.87
2019-02-09T12:35:48.314Z,994.01
2019-02-09T12:36:49.732Z,993.84
2019-02-09T12:37:51.143Z,993.70
2019-02-09T12:38:52.557Z,993.78
2019-02-09T12:39:53.959Z,993.85
2019-02-09T12:40:55.359Z,993.68
2019-02-09T12:41:56.768Z,993.83
2019-02-09T12:42:58.177Z,993.86
2019-02-09T12:43:59.581Z,993.77
2019-02-09T12:45:00.981Z,993.84
2019-02-09T12:46:02.383Z,993.69
2019-02-09T12:47:03.804Z,993.81
2019-02-09T12:48:05.207Z,993.77
2019-02-09T12:49:06.629Z,993.85
2019-02-09T12:50:08.035Z,993.91
2019-02-09T12:51:09.447Z,993.92
2019-02-09T12:52:10.851Z,993.87
2019-02-09T12:53:12.265Z,993.86
2019-02-09T12:54:13.685Z,993.91
2019-02-09T12:55:15.081Z,993.78
2019-02-09T12:56:16.494Z,993.67
2019-02-09T12:57:17.903Z,993.78
2019-02-09T12:58:19.297Z,993.84
2019-02-09T12:59:20.723Z,993.78
2019-02-09T13:00:22.142Z,993.87
2019-02-09T13:01:23.567Z,993.96
2019-02-09T13:02:24.971Z,993.94
2019-02-09T13:03:31.096Z,993.84
2019-02-09T13:04:27.748Z,993.83
2019-02-09T13:05:29.158Z,993.84
2019-02-09T13:06:30.576Z,993.79
2019-02-09T13:07:31.995Z,993.87
2019-02-09T13:08:33.411Z,993.87
2019-02-09T13:09:34.817Z,993.91
2019-02-09T13:10:36.221Z,993.82
2019-02-09T13:11:37.645Z,993.81
2019-02-09T13:12:39.059Z,993.79
2019-02-09T13:13:40.477Z,993.86
2019-02-09T13:14:41.886Z,993.99
2019-02-09T13:15:43.289Z,993.94
2019-02-09T13:16:44.700Z,993.98
2019-02-09T13:17:46.111Z,993.84
2019-02-09T13:18:47.516Z,993.83
2019-02-09T13:19:48.924Z,993.68
2019-02-09T13:20:50.338Z,993.80
2019-02-09T13:21:51.768Z,993.70
2019-02-09T13:22:53.177Z,993.79
2019-02-09T13:23:54.614Z,993.76
2019-02-09T13:24:56.024Z,993.81
2019-02-09T13:25:57.420Z,993.84
2019-02-09T13:26:58.828Z,993.77
2019-02-09T13:28:00.234Z,993.80
2019-02-09T13:29:01.645Z,993.76
2019-02-09T13:30:03.053Z,993.79
2019-02-09T13:31:04.454Z,993.80
2019-02-09T13:32:05.861Z,993.76
2019-02-09T13:33:07.299Z,993.81
2019-02-09T13:34:08.703Z,993.66
2019-02-09T13:35:10.109Z,993.62
2019-02-09T13:36:11.517Z,993.70
2019-02-09T13:37:12.922Z,993.69
2019-02-09T13:38:14.338Z,993.83
2019-02-09T13:39:15.757Z,993.78
2019-02-09T13:40:17.158Z,993.80
2019-02-09T13:41:18.567Z,993.81
2019-02-09T13:42:19.981Z,993.94
2019-02-09T13:43:21.387Z,993.92
2019-02-09T13:44:22.794Z,993.89
2019-02-09T13:45:24.201Z,993.87
2019-02-09T13:46:25.605Z,994.04
2019-02-09T13:47:27.014Z,993.99
2019-02-09T13:48:28.432Z,993.95
2019-02-09T13:49:29.844Z,993.92
2019-02-09T19:51:27.665Z,996.61
2019-02-09T19:52:29.135Z,996.59
2019-02-09T19:53:30.584Z,996.53
2019-02-09T19:54:32.020Z,996.59
2019-02-09T19:55:33.483Z,996.66
2019-02-09T19:56:34.943Z,996.65
2019-02-09T19:57:36.381Z,996.67
2019-02-09T19:58:38.362Z,996.70
2019-02-09T19:59:41.326Z,996.70
2019-02-09T20:00:42.149Z,996.75
2019-02-09T20:01:43.624Z,996.84
2019-02-09T20:02:45.074Z,996.81
2019-02-09T20:03:46.544Z,996.84
2019-02-09T20:04:48.006Z,996.81
2019-02-09T20:05:49.460Z,996.80
2019-02-09T20:06:51.910Z,996.81
2019-02-09T20:07:53.407Z,996.81
2019-02-09T20:08:55.546Z,996.86
2019-02-09T20:09:57.000Z,996.79
2019-02-09T20:10:58.473Z,996.85
2019-02-09T20:11:59.990Z,996.85
2019-02-09T20:13:01.449Z,996.76
2019-02-09T20:14:03.725Z,996.86
2019-02-09T20:15:05.210Z,996.76
2019-02-09T20:16:06.665Z,996.71
2019-02-09T20:17:08.156Z,996.70
2019-02-09T20:18:10.842Z,996.74
2019-02-09T20:19:12.290Z,996.76
2019-02-09T20:20:13.752Z,996.76
2019-02-09T20:21:16.078Z,996.80
2019-02-09T20:22:17.529Z,996.79
2019-02-09T20:23:19.009Z,996.77
2019-02-09T20:24:20.531Z,996.78
2019-02-09T20:25:21.989Z,996.81
2019-02-09T20:26:23.466Z,996.78
2019-02-09T20:27:24.972Z,996.73
2019-02-09T20:28:26.437Z,996.73
2019-02-09T20:29:30.059Z,996.74
2019-02-09T20:30:31.553Z,996.76
2019-02-09T20:31:33.736Z,996.77
2019-02-09T20:32:35.209Z,996.79
2019-02-09T20:33:36.718Z,996.86
2019-02-09T20:34:38.973Z,996.86
2019-02-09T20:35:41.332Z,996.89
2019-02-09T20:36:41.861Z,996.85
2019-02-09T20:37:43.338Z,996.92
2019-02-09T20:38:44.778Z,996.90
2019-02-09T20:39:46.294Z,996.92
2019-02-09T20:40:47.865Z,996.88
2019-02-09T20:41:49.688Z,996.84
2019-02-09T20:42:52.079Z,996.89
2019-02-09T20:43:54.093Z,996.93
2019-02-09T20:44:55.575Z,996.95
2019-02-09T20:45:57.908Z,996.89
2019-02-09T20:47:00.079Z,996.95
2019-02-09T20:48:02.244Z,996.92
2019-02-09T20:49:03.706Z,996.99
2019-02-09T20:50:05.184Z,996.90
2019-02-09T20:51:06.629Z,996.99
2019-02-09T20:52:09.022Z,996.98
2019-02-09T20:53:11.439Z,996.98
2019-02-09T20:54:12.896Z,997.01
2019-02-09T20:55:14.359Z,997.03
2019-02-09T20:56:15.844Z,996.96
2019-02-09T20:57:17.328Z,997.03
2019-02-09T20:58:18.806Z,997.00
2019-02-09T20:59:20.276Z,997.08
2019-02-09T21:00:21.748Z,997.03
2019-02-09T21:01:23.196Z,997.01
2019-02-09T21:02:24.607Z,997.10
2019-02-09T21:03:26.052Z,997.12
2019-02-09T21:04:27.517Z,997.12
2019-02-09T21:05:35.643Z,997.12
2019-02-09T21:06:30.347Z,997.13
2019-02-09T21:07:31.780Z,997.10
2019-02-09T21:08:33.255Z,997.11
2019-02-09T21:09:34.669Z,997.13
2019-02-09T21:10:36.185Z,997.20
2019-02-09T21:11:37.651Z,997.13
2019-02-09T21:12:39.098Z,997.19
2019-02-09T21:13:40.526Z,997.18
2019-02-09T21:14:43.023Z,997.21
2019-02-09T21:15:44.538Z,997.17
2019-02-09T21:16:51.560Z,997.22
2019-02-09T21:17:47.410Z,997.19
2019-02-09T21:18:48.905Z,997.23
2019-02-09T21:19:50.332Z,997.23
2019-02-09T21:20:51.775Z,997.19
2019-02-09T21:21:53.194Z,997.23
2019-02-09T21:22:54.621Z,997.19
2019-02-09T21:23:56.111Z,997.30
2019-02-09T21:24:57.690Z,997.25
2019-02-09T21:25:59.121Z,997.18
2019-02-09T21:27:00.637Z,997.24
2019-02-09T21:28:02.032Z,997.21
2019-02-09T21:29:03.468Z,997.22
2019-02-09T21:30:04.894Z,997.21
2019-02-09T21:31:06.360Z,997.21
2019-02-09T21:32:07.832Z,997.26
2019-02-09T21:33:09.347Z,997.25
2019-02-09T21:34:11.759Z,997.23
2019-02-09T21:35:13.184Z,997.18
2019-02-09T21:36:14.641Z,997.31
2019-02-09T21:37:16.066Z,997.22
2019-02-09T21:38:17.494Z,997.20
2019-02-09T21:39:18.903Z,997.25
2019-02-09T21:40:20.347Z,997.22
2019-02-09T21:41:22.605Z,997.25
2019-02-09T21:42:24.726Z,997.30
2019-02-09T21:43:26.129Z,997.24
2019-02-09T21:44:27.584Z,997.26
2019-02-09T21:45:28.985Z,997.26
2019-02-09T21:46:30.379Z,997.30
2019-02-09T21:47:31.806Z,997.26
2019-02-09T21:48:33.233Z,997.24
2019-02-09T21:49:34.666Z,997.26
2019-02-09T21:50:36.100Z,997.28
2019-02-09T21:51:37.518Z,997.26
2019-02-09T21:52:38.925Z,997.29
2019-02-09T21:53:40.324Z,997.26
2019-02-09T21:54:41.736Z,997.30
2019-02-09T21:55:43.136Z,997.27
2019-02-09T21:56:44.530Z,997.27
2019-02-09T21:57:45.942Z,997.29
2019-02-09T21:58:47.345Z,997.31
2019-02-09T21:59:48.748Z,997.25
2019-02-09T22:00:50.181Z,997.38
2019-02-09T22:01:51.589Z,997.29
2019-02-09T22:02:52.984Z,997.37
2019-02-09T22:03:54.396Z,997.35
2019-02-09T22:04:55.802Z,997.37
2019-02-09T22:05:57.210Z,997.35
2019-02-09T22:06:58.617Z,997.39
2019-02-09T22:08:00.029Z,997.31
2019-02-09T22:09:01.429Z,997.31
2019-02-09T22:10:02.825Z,997.36
2019-02-09T22:11:04.237Z,997.38
2019-02-09T22:12:05.673Z,997.37
2019-02-09T22:13:07.065Z,997.35
2019-02-09T22:14:08.490Z,997.33
2019-02-09T22:15:09.892Z,997.39
2019-02-09T22:16:11.301Z,997.37
2019-02-09T22:17:12.838Z,997.39
2019-02-09T22:18:14.092Z,997.35
2019-02-09T22:19:15.504Z,997.52
2019-02-09T22:20:16.910Z,997.33
2019-02-09T22:21:18.400Z,997.35
2019-02-09T22:22:19.687Z,997.33
2019-02-09T22:23:21.096Z,997.35
2019-02-09T22:24:22.507Z,997.33
2019-02-09T22:25:23.908Z,997.36
2019-02-09T22:26:25.309Z,997.38
2019-02-09T22:27:26.706Z,997.28
2019-02-09T22:28:28.104Z,997.45
2019-02-09T22:29:29.502Z,997.35
2019-02-09T22:30:30.927Z,997.39
2019-02-09T22:31:32.314Z,997.38
2019-02-09T22:32:33.731Z,997.40
2019-02-09T22:33:35.113Z,997.41
2019-02-09T22:34:36.510Z,997.47
2019-02-09T22:35:37.907Z,997.42
2019-02-09T22:36:39.315Z,997.45
2019-02-09T22:37:40.713Z,997.40
2019-02-09T22:38:42.138Z,997.44
2019-02-09T22:39:43.562Z,997.42
2019-02-09T22:40:44.959Z,997.49
2019-02-09T22:41:49.102Z,997.50
2019-02-09T22:42:47.742Z,997.48
2019-02-09T22:43:49.150Z,997.49
2019-02-09T22:44:50.551Z,997.50
2019-02-09T22:45:51.945Z,997.45
2019-02-09T22:46:53.350Z,997.44
2019-02-09T22:47:54.753Z,997.40
2019-02-09T22:48:56.153Z,997.40
2019-02-09T22:49:57.564Z,997.40
2019-02-09T22:50:58.957Z,997.46
2019-02-09T22:52:00.357Z,997.44
2019-02-09T22:53:01.830Z,997.39
2019-02-09T22:54:03.178Z,997.43
2019-02-09T22:55:04.586Z,997.44
2019-02-09T22:56:05.984Z,997.45
2019-02-09T22:57:07.354Z,997.36
2019-02-09T22:58:08.754Z,997.45
2019-02-09T22:59:10.150Z,997.47
2019-02-09T23:00:11.558Z,997.46
2019-02-09T23:01:12.956Z,997.41
2019-02-09T23:02:14.349Z,997.42
2019-02-09T23:03:15.752Z,997.44
2019-02-09T23:04:17.155Z,997.48
2019-02-09T23:05:18.557Z,997.45
2019-02-09T23:06:19.957Z,997.56
2019-02-09T23:07:21.365Z,997.44
2019-02-09T23:08:22.759Z,997.51
2019-02-09T23:09:24.157Z,997.49
2019-02-09T23:10:25.551Z,997.35
2019-02-09T23:11:26.952Z,997.43
2019-02-09T23:12:28.354Z,997.44
2019-02-09T23:13:29.749Z,997.43
2019-02-09T23:14:31.164Z,997.44
2019-02-09T23:15:32.572Z,997.52
2019-02-09T23:16:33.994Z,997.51
2019-02-09T23:17:35.409Z,997.53
2019-02-09T23:18:36.809Z,997.46
2019-02-09T23:19:38.210Z,997.47
2019-02-09T23:20:39.608Z,997.57
2019-02-09T23:21:41.012Z,997.57
2019-02-09T23:22:42.408Z,997.48
2019-02-09T23:23:43.816Z,997.46
2019-02-09T23:24:45.228Z,997.53
2019-02-09T23:25:46.633Z,997.50
2019-02-09T23:26:48.042Z,997.48
2019-02-09T23:27:49.450Z,997.55
2019-02-09T23:28:50.864Z,997.55
2019-02-09T23:29:52.264Z,997.55
2019-02-09T23:30:53.673Z,997.61
2019-02-09T23:31:55.072Z,997.60
2019-02-09T23:32:56.473Z,997.59
2019-02-09T23:33:57.867Z,997.71
2019-02-09T23:34:59.259Z,997.65
2019-02-09T23:36:00.663Z,997.76
2019-02-09T23:37:02.065Z,997.71
2019-02-09T23:38:03.479Z,997.70
2019-02-09T23:39:04.893Z,997.70
2019-02-09T23:40:06.281Z,997.69
2019-02-09T23:41:07.687Z,997.73
2019-02-09T23:42:09.087Z,997.78
2019-02-09T23:43:10.496Z,997.74
2019-02-09T23:44:11.899Z,997.75
2019-02-09T23:45:13.322Z,997.77
2019-02-09T23:46:14.728Z,997.84
2019-02-09T23:47:16.122Z,997.74
2019-02-09T23:48:17.526Z,997.74
2019-02-09T23:49:18.924Z,997.77
2019-02-09T23:50:20.332Z,997.83
2019-02-09T23:51:21.736Z,997.77
2019-02-09T23:52:23.133Z,997.76
2019-02-09T23:53:24.526Z,997.79
2019-02-09T23:54:25.969Z,997.83
2019-02-09T23:55:27.366Z,997.84
2019-02-09T23:56:28.772Z,997.83
2019-02-09T23:57:30.166Z,997.84
2019-02-09T23:58:31.568Z,997.83
2019-02-09T23:59:32.977Z,997.85
